sensor_id;sensor_type;location;lat;lon;timestamp;P1;durP1;ratioP1;P2;durP2;ratioP2
72929;SDS011;61073;54.260;20.816;2022-08-30T08:08:36;1.98;;;0.68;;
72929;SDS011;61073;54.260;20.816;2022-08-30T08:11:05;2.35;;;1.20;;
72929;SDS011;61073;54.260;20.816;2022-08-30T08:13:34;1.48;;;0.70;;
72929;SDS011;61073;54.260;20.816;2022-08-30T08:16:00;3.22;;;0.80;;
72929;SDS011;61073;54.260;20.816;2022-08-30T08:18:27;2.05;;;0.68;;
72929;SDS011;61073;54.260;20.816;2022-08-30T08:20:54;2.20;;;0.80;;
72929;SDS011;61073;54.260;20.816;2022-08-30T08:23:22;2.33;;;0.82;;
72929;SDS011;61073;54.260;20.816;2022-08-30T08:25:48;2.40;;;0.80;;
72929;SDS011;61073;54.260;20.816;2022-08-30T08:28:16;0.93;;;0.45;;
72929;SDS011;61073;54.260;20.816;2022-08-30T08:30:43;0.93;;;0.60;;
72929;SDS011;61073;54.260;20.816;2022-08-30T08:33:13;0.77;;;0.50;;
72929;SDS011;61073;54.260;20.816;2022-08-30T08:35:39;2.15;;;0.70;;
72929;SDS011;61073;54.260;20.816;2022-08-30T08:38:07;1.42;;;0.40;;
72929;SDS011;61073;54.260;20.816;2022-08-30T08:40:40;0.93;;;0.60;;
72929;SDS011;61073;54.260;20.816;2022-08-30T08:43:26;0.65;;;0.43;;
72929;SDS011;61073;54.260;20.816;2022-08-30T08:48:27;2.75;;;0.98;;
72929;SDS011;61073;54.260;20.816;2022-08-30T08:51:01;1.45;;;0.63;;
72929;SDS011;61073;54.260;20.816;2022-08-30T08:53:56;3.35;;;0.70;;
72929;SDS011;61073;54.260;20.816;2022-08-30T08:56:41;2.70;;;0.55;;
72929;SDS011;61073;54.260;20.816;2022-08-30T08:59:09;1.27;;;0.60;;
72929;SDS011;61073;54.260;20.816;2022-08-30T09:01:37;2.47;;;0.30;;
72929;SDS011;61073;54.260;20.816;2022-08-30T09:04:08;0.90;;;0.47;;
72929;SDS011;61073;54.260;20.816;2022-08-30T09:09:31;1.27;;;0.50;;
72929;SDS011;61073;54.260;20.816;2022-08-30T09:12:00;1.15;;;0.60;;
72929;SDS011;61073;54.260;20.816;2022-08-30T09:14:30;0.90;;;0.30;;
72929;SDS011;61073;54.260;20.816;2022-08-30T09:17:02;2.90;;;0.50;;
72929;SDS011;61073;54.260;20.816;2022-08-30T09:27:27;1.27;;;0.30;;
72929;SDS011;61073;54.260;20.816;2022-08-30T09:30:06;1.65;;;0.50;;
72929;SDS011;61073;54.260;20.816;2022-08-30T09:32:39;1.07;;;0.40;;
72929;SDS011;61073;54.260;20.816;2022-08-30T09:35:09;1.60;;;0.40;;
72929;SDS011;61073;54.260;20.816;2022-08-30T09:37:45;1.58;;;0.57;;
72929;SDS011;61073;54.260;20.816;2022-08-30T09:43:08;1.25;;;0.47;;
72929;SDS011;61073;54.260;20.816;2022-08-30T09:48:37;1.50;;;0.47;;
72929;SDS011;61073;54.260;20.816;2022-08-30T09:53:44;1.60;;;0.50;;
72929;SDS011;61073;54.260;20.816;2022-08-30T09:56:46;1.92;;;0.77;;
72929;SDS011;61073;54.260;20.816;2022-08-30T10:05:34;3.25;;;0.60;;
72929;SDS011;61073;54.260;20.816;2022-08-30T10:11:25;3.42;;;0.50;;
72929;SDS011;61073;54.260;20.816;2022-08-30T10:31:40;1.13;;;0.60;;
72929;SDS011;61073;54.260;20.816;2022-08-30T10:34:20;1.00;;;0.70;;
72929;SDS011;61073;54.260;20.816;2022-08-30T10:37:03;3.38;;;0.70;;
72929;SDS011;61073;54.260;20.816;2022-08-30T10:39:42;1.15;;;0.60;;
72929;SDS011;61073;54.260;20.816;2022-08-30T10:42:16;3.85;;;0.80;;
72929;SDS011;61073;54.260;20.816;2022-08-30T10:44:52;8.57;;;0.60;;
72929;SDS011;61073;54.260;20.816;2022-08-30T10:50:16;1.25;;;0.60;;
72929;SDS011;61073;54.260;20.816;2022-08-30T10:52:51;2.13;;;0.77;;
72929;SDS011;61073;54.260;20.816;2022-08-30T10:55:26;1.55;;;0.50;;
72929;SDS011;61073;54.260;20.816;2022-08-30T10:58:03;3.75;;;0.70;;
72929;SDS011;61073;54.260;20.816;2022-08-30T11:09:16;1.77;;;0.30;;
72929;SDS011;61073;54.260;20.816;2022-08-30T15:35:21;2.08;;;1.02;;
72929;SDS011;61073;54.260;20.816;2022-08-30T15:37:48;1.20;;;1.10;;
72929;SDS011;61073;54.260;20.816;2022-08-30T15:40:14;3.05;;;1.25;;
72929;SDS011;61073;54.260;20.816;2022-08-30T15:42:41;2.83;;;0.90;;
72929;SDS011;61073;54.260;20.816;2022-08-30T15:45:08;2.22;;;1.02;;
72929;SDS011;61073;54.260;20.816;2022-08-30T15:47:35;1.17;;;0.90;;
72929;SDS011;61073;54.260;20.816;2022-08-30T15:50:02;1.38;;;0.80;;
72929;SDS011;61073;54.260;20.816;2022-08-30T15:52:31;1.40;;;1.00;;
72929;SDS011;61073;54.260;20.816;2022-08-30T15:54:58;1.73;;;1.30;;
72929;SDS011;61073;54.260;20.816;2022-08-30T15:57:24;1.95;;;1.08;;
72929;SDS011;61073;54.260;20.816;2022-08-30T15:59:51;2.15;;;1.50;;
72929;SDS011;61073;54.260;20.816;2022-08-30T16:02:19;4.18;;;1.65;;
72929;SDS011;61073;54.260;20.816;2022-08-30T16:04:47;3.53;;;1.27;;
72929;SDS011;61073;54.260;20.816;2022-08-30T16:07:13;1.55;;;0.85;;
72929;SDS011;61073;54.260;20.816;2022-08-30T16:09:40;3.42;;;1.20;;
72929;SDS011;61073;54.260;20.816;2022-08-30T16:12:07;2.15;;;1.10;;
72929;SDS011;61073;54.260;20.816;2022-08-30T16:14:34;2.22;;;1.30;;
72929;SDS011;61073;54.260;20.816;2022-08-30T16:17:00;2.38;;;1.00;;
72929;SDS011;61073;54.260;20.816;2022-08-30T16:19:27;1.58;;;0.98;;
72929;SDS011;61073;54.260;20.816;2022-08-30T16:21:54;1.27;;;1.05;;
72929;SDS011;61073;54.260;20.816;2022-08-30T16:24:21;3.40;;;1.50;;
72929;SDS011;61073;54.260;20.816;2022-08-30T16:26:48;1.27;;;1.10;;
72929;SDS011;61073;54.260;20.816;2022-08-30T16:29:15;1.75;;;1.17;;
72929;SDS011;61073;54.260;20.816;2022-08-30T16:31:42;0.98;;;0.90;;
72929;SDS011;61073;54.260;20.816;2022-08-30T16:34:09;0.75;;;0.73;;
72929;SDS011;61073;54.260;20.816;2022-08-30T16:36:37;17.55;;;10.82;;
72929;SDS011;61073;54.260;20.816;2022-08-30T16:39:05;13.60;;;7.13;;
72929;SDS011;61073;54.260;20.816;2022-08-30T16:41:34;12.88;;;6.00;;
72929;SDS011;61073;54.260;20.816;2022-08-30T16:44:02;4.47;;;2.92;;
72929;SDS011;61073;54.260;20.816;2022-08-30T16:46:29;5.20;;;2.95;;
72929;SDS011;61073;54.260;20.816;2022-08-30T16:48:57;3.95;;;2.55;;
72929;SDS011;61073;54.260;20.816;2022-08-30T16:51:27;5.53;;;1.85;;
72929;SDS011;61073;54.260;20.816;2022-08-30T16:53:56;2.05;;;1.50;;
72929;SDS011;61073;54.260;20.816;2022-08-30T16:56:26;1.83;;;1.30;;
72929;SDS011;61073;54.260;20.816;2022-08-30T16:58:55;2.60;;;1.42;;
72929;SDS011;61073;54.260;20.816;2022-08-30T17:01:28;1.92;;;1.45;;
72929;SDS011;61073;54.260;20.816;2022-08-30T17:03:56;1.60;;;1.00;;
72929;SDS011;61073;54.260;20.816;2022-08-30T17:06:23;2.63;;;1.20;;
72929;SDS011;61073;54.260;20.816;2022-08-30T17:08:50;3.50;;;1.77;;
72929;SDS011;61073;54.260;20.816;2022-08-30T17:11:16;3.53;;;1.52;;
72929;SDS011;61073;54.260;20.816;2022-08-30T17:13:44;1.95;;;1.48;;
72929;SDS011;61073;54.260;20.816;2022-08-30T17:16:11;1.23;;;0.93;;
72929;SDS011;61073;54.260;20.816;2022-08-30T17:18:37;3.92;;;1.30;;
72929;SDS011;61073;54.260;20.816;2022-08-30T17:21:04;2.20;;;1.25;;
72929;SDS011;61073;54.260;20.816;2022-08-30T17:23:32;3.38;;;1.50;;
72929;SDS011;61073;54.260;20.816;2022-08-30T17:25:59;4.45;;;1.42;;
72929;SDS011;61073;54.260;20.816;2022-08-30T17:28:26;1.42;;;1.08;;
72929;SDS011;61073;54.260;20.816;2022-08-30T17:30:53;3.00;;;1.40;;
72929;SDS011;61073;54.260;20.816;2022-08-30T17:33:20;2.50;;;1.33;;
72929;SDS011;61073;54.260;20.816;2022-08-30T17:35:47;1.48;;;0.82;;
72929;SDS011;61073;54.260;20.816;2022-08-30T17:38:14;2.17;;;1.35;;
72929;SDS011;61073;54.260;20.816;2022-08-30T17:40:41;3.78;;;1.50;;
72929;SDS011;61073;54.260;20.816;2022-08-30T17:43:08;1.20;;;1.00;;
72929;SDS011;61073;54.260;20.816;2022-08-30T17:45:35;1.42;;;0.90;;
72929;SDS011;61073;54.260;20.816;2022-08-30T17:48:02;2.08;;;1.10;;
72929;SDS011;61073;54.260;20.816;2022-08-30T17:50:29;1.10;;;1.00;;
72929;SDS011;61073;54.260;20.816;2022-08-30T17:52:56;1.80;;;1.30;;
72929;SDS011;61073;54.260;20.816;2022-08-30T17:55:22;1.20;;;1.10;;
72929;SDS011;61073;54.260;20.816;2022-08-30T17:57:50;2.58;;;1.10;;
72929;SDS011;61073;54.260;20.816;2022-08-30T18:00:17;1.77;;;1.10;;
72929;SDS011;61073;54.260;20.816;2022-08-30T18:02:48;1.40;;;1.08;;
72929;SDS011;61073;54.260;20.816;2022-08-30T18:05:15;3.67;;;1.20;;
72929;SDS011;61073;54.260;20.816;2022-08-30T18:07:42;2.78;;;1.48;;
72929;SDS011;61073;54.260;20.816;2022-08-30T18:10:09;3.47;;;1.50;;
72929;SDS011;61073;54.260;20.816;2022-08-30T18:12:35;3.33;;;1.67;;
72929;SDS011;61073;54.260;20.816;2022-08-30T18:15:02;1.10;;;1.00;;
72929;SDS011;61073;54.260;20.816;2022-08-30T18:17:29;2.95;;;1.17;;
72929;SDS011;61073;54.260;20.816;2022-08-30T18:19:55;1.77;;;1.10;;
72929;SDS011;61073;54.260;20.816;2022-08-30T18:22:22;2.40;;;1.20;;
72929;SDS011;61073;54.260;20.816;2022-08-30T18:24:49;1.88;;;1.20;;
72929;SDS011;61073;54.260;20.816;2022-08-30T18:27:15;2.10;;;1.00;;
72929;SDS011;61073;54.260;20.816;2022-08-30T18:29:42;1.70;;;1.23;;
72929;SDS011;61073;54.260;20.816;2022-08-30T18:32:09;3.08;;;1.13;;
72929;SDS011;61073;54.260;20.816;2022-08-30T18:34:36;3.13;;;1.15;;
72929;SDS011;61073;54.260;20.816;2022-08-30T18:37:02;1.60;;;1.13;;
72929;SDS011;61073;54.260;20.816;2022-08-30T18:39:29;1.88;;;1.17;;
72929;SDS011;61073;54.260;20.816;2022-08-30T18:41:56;2.13;;;1.20;;
72929;SDS011;61073;54.260;20.816;2022-08-30T18:44:22;1.08;;;0.90;;
72929;SDS011;61073;54.260;20.816;2022-08-30T18:46:52;1.40;;;1.05;;
72929;SDS011;61073;54.260;20.816;2022-08-30T18:49:19;2.03;;;1.40;;
72929;SDS011;61073;54.260;20.816;2022-08-30T18:51:46;2.00;;;1.20;;
72929;SDS011;61073;54.260;20.816;2022-08-30T18:54:12;1.58;;;1.00;;
72929;SDS011;61073;54.260;20.816;2022-08-30T18:56:39;2.25;;;1.25;;
72929;SDS011;61073;54.260;20.816;2022-08-30T18:59:06;2.88;;;1.23;;
72929;SDS011;61073;54.260;20.816;2022-08-30T19:01:32;1.08;;;0.88;;
72929;SDS011;61073;54.260;20.816;2022-08-30T19:04:00;2.13;;;1.20;;
72929;SDS011;61073;54.260;20.816;2022-08-30T19:06:27;2.70;;;1.35;;
72929;SDS011;61073;54.260;20.816;2022-08-30T19:08:54;2.10;;;1.10;;
72929;SDS011;61073;54.260;20.816;2022-08-30T19:11:21;1.35;;;0.88;;
72929;SDS011;61073;54.260;20.816;2022-08-30T19:13:48;1.73;;;1.10;;
72929;SDS011;61073;54.260;20.816;2022-08-30T19:16:15;2.42;;;0.82;;
72929;SDS011;61073;54.260;20.816;2022-08-30T19:18:42;2.17;;;0.88;;
72929;SDS011;61073;54.260;20.816;2022-08-30T19:21:08;2.30;;;1.08;;
72929;SDS011;61073;54.260;20.816;2022-08-30T19:23:35;2.92;;;1.30;;
72929;SDS011;61073;54.260;20.816;2022-08-30T19:26:03;1.48;;;1.23;;
72929;SDS011;61073;54.260;20.816;2022-08-30T19:28:30;1.98;;;1.02;;
72929;SDS011;61073;54.260;20.816;2022-08-30T19:30:58;1.52;;;0.93;;
72929;SDS011;61073;54.260;20.816;2022-08-30T19:33:25;1.20;;;1.00;;
72929;SDS011;61073;54.260;20.816;2022-08-30T19:35:52;1.13;;;1.00;;
72929;SDS011;61073;54.260;20.816;2022-08-30T19:38:18;1.58;;;1.08;;
72929;SDS011;61073;54.260;20.816;2022-08-30T19:40:45;1.88;;;1.05;;
72929;SDS011;61073;54.260;20.816;2022-08-30T19:43:14;1.05;;;0.93;;
72929;SDS011;61073;54.260;20.816;2022-08-30T19:45:40;3.00;;;1.10;;
72929;SDS011;61073;54.260;20.816;2022-08-30T19:48:07;1.45;;;0.95;;
72929;SDS011;61073;54.260;20.816;2022-08-30T19:50:34;1.23;;;0.82;;
72929;SDS011;61073;54.260;20.816;2022-08-30T19:53:02;2.15;;;1.00;;
72929;SDS011;61073;54.260;20.816;2022-08-30T19:55:30;0.88;;;0.88;;
72929;SDS011;61073;54.260;20.816;2022-08-30T19:57:57;1.40;;;1.20;;
72929;SDS011;61073;54.260;20.816;2022-08-30T20:00:23;1.55;;;1.02;;
72929;SDS011;61073;54.260;20.816;2022-08-30T20:02:50;1.17;;;0.85;;
72929;SDS011;61073;54.260;20.816;2022-08-30T20:05:17;1.02;;;0.90;;
72929;SDS011;61073;54.260;20.816;2022-08-30T20:07:45;2.25;;;1.30;;
72929;SDS011;61073;54.260;20.816;2022-08-30T20:10:12;1.05;;;0.80;;
72929;SDS011;61073;54.260;20.816;2022-08-30T20:12:40;1.48;;;0.88;;
72929;SDS011;61073;54.260;20.816;2022-08-30T20:15:12;2.22;;;1.05;;
72929;SDS011;61073;54.260;20.816;2022-08-30T20:17:41;2.10;;;1.30;;
72929;SDS011;61073;54.260;20.816;2022-08-30T20:20:25;2.85;;;1.23;;
72929;SDS011;61073;54.260;20.816;2022-08-30T20:22:52;1.83;;;1.25;;
72929;SDS011;61073;54.260;20.816;2022-08-30T20:25:18;1.70;;;1.10;;
72929;SDS011;61073;54.260;20.816;2022-08-30T20:27:46;1.77;;;1.23;;
72929;SDS011;61073;54.260;20.816;2022-08-30T20:30:15;2.50;;;1.35;;
72929;SDS011;61073;54.260;20.816;2022-08-30T20:32:42;1.92;;;1.10;;
72929;SDS011;61073;54.260;20.816;2022-08-30T20:35:12;4.65;;;1.45;;
72929;SDS011;61073;54.260;20.816;2022-08-30T20:37:41;3.45;;;1.58;;
72929;SDS011;61073;54.260;20.816;2022-08-30T20:40:09;2.20;;;1.40;;
72929;SDS011;61073;54.260;20.816;2022-08-30T20:42:40;1.83;;;1.30;;
72929;SDS011;61073;54.260;20.816;2022-08-30T20:45:09;3.53;;;1.40;;
72929;SDS011;61073;54.260;20.816;2022-08-30T20:47:38;1.50;;;1.17;;
72929;SDS011;61073;54.260;20.816;2022-08-30T20:50:06;1.52;;;1.10;;
72929;SDS011;61073;54.260;20.816;2022-08-30T20:52:34;1.60;;;1.10;;
72929;SDS011;61073;54.260;20.816;2022-08-30T20:55:01;1.77;;;1.10;;
72929;SDS011;61073;54.260;20.816;2022-08-30T20:57:29;1.75;;;1.02;;
72929;SDS011;61073;54.260;20.816;2022-08-30T20:59:57;1.75;;;1.00;;
72929;SDS011;61073;54.260;20.816;2022-08-30T21:02:24;2.65;;;1.20;;
72929;SDS011;61073;54.260;20.816;2022-08-30T21:04:51;2.00;;;1.02;;
72929;SDS011;61073;54.260;20.816;2022-08-30T21:07:17;1.50;;;0.98;;
72929;SDS011;61073;54.260;20.816;2022-08-30T21:09:44;2.65;;;1.20;;
72929;SDS011;61073;54.260;20.816;2022-08-30T21:14:37;3.28;;;1.15;;
72929;SDS011;61073;54.260;20.816;2022-08-30T21:19:30;1.85;;;1.20;;
72929;SDS011;61073;54.260;20.816;2022-08-30T21:24:24;1.10;;;0.82;;
72929;SDS011;61073;54.260;20.816;2022-08-30T21:26:51;0.93;;;0.73;;
72929;SDS011;61073;54.260;20.816;2022-08-30T21:29:20;1.42;;;1.10;;
72929;SDS011;61073;54.260;20.816;2022-08-30T21:31:47;1.58;;;1.17;;
72929;SDS011;61073;54.260;20.816;2022-08-30T21:34:14;1.45;;;1.10;;
72929;SDS011;61073;54.260;20.816;2022-08-30T21:36:41;1.20;;;0.90;;
72929;SDS011;61073;54.260;20.816;2022-08-30T21:41:46;3.05;;;1.10;;
72929;SDS011;61073;54.260;20.816;2022-08-30T21:44:17;3.10;;;1.17;;
72929;SDS011;61073;54.260;20.816;2022-08-30T21:46:46;1.30;;;1.00;;
72929;SDS011;61073;54.260;20.816;2022-08-30T21:49:16;0.80;;;0.63;;
72929;SDS011;61073;54.260;20.816;2022-08-30T21:51:45;1.30;;;0.70;;
72929;SDS011;61073;54.260;20.816;2022-08-30T21:54:14;1.80;;;1.10;;
72929;SDS011;61073;54.260;20.816;2022-08-30T21:56:43;0.88;;;0.80;;
72929;SDS011;61073;54.260;20.816;2022-08-30T21:59:11;1.92;;;0.90;;
72929;SDS011;61073;54.260;20.816;2022-08-30T22:01:38;1.38;;;1.15;;
72929;SDS011;61073;54.260;20.816;2022-08-30T22:04:06;1.63;;;1.20;;
72929;SDS011;61073;54.260;20.816;2022-08-30T22:06:35;1.27;;;0.90;;
72929;SDS011;61073;54.260;20.816;2022-08-30T22:09:08;1.35;;;1.00;;
72929;SDS011;61073;54.260;20.816;2022-08-30T22:11:39;1.25;;;1.02;;
72929;SDS011;61073;54.260;20.816;2022-08-30T22:14:08;1.23;;;0.75;;
72929;SDS011;61073;54.260;20.816;2022-08-30T22:16:35;1.05;;;0.70;;
72929;SDS011;61073;54.260;20.816;2022-08-30T22:19:02;0.85;;;0.77;;
72929;SDS011;61073;54.260;20.816;2022-08-30T22:21:30;1.65;;;0.90;;
72929;SDS011;61073;54.260;20.816;2022-08-30T22:23:59;1.67;;;0.85;;
72929;SDS011;61073;54.260;20.816;2022-08-30T22:26:26;1.50;;;1.10;;
72929;SDS011;61073;54.260;20.816;2022-08-30T22:28:53;1.65;;;1.05;;
72929;SDS011;61073;54.260;20.816;2022-08-30T22:31:20;1.95;;;0.90;;
72929;SDS011;61073;54.260;20.816;2022-08-30T22:33:49;1.38;;;1.00;;
72929;SDS011;61073;54.260;20.816;2022-08-30T22:36:24;1.55;;;1.13;;
72929;SDS011;61073;54.260;20.816;2022-08-30T22:38:53;0.88;;;0.70;;
72929;SDS011;61073;54.260;20.816;2022-08-30T22:41:22;1.30;;;0.80;;
72929;SDS011;61073;54.260;20.816;2022-08-30T22:43:51;2.67;;;0.98;;
72929;SDS011;61073;54.260;20.816;2022-08-30T22:46:18;1.45;;;0.95;;
72929;SDS011;61073;54.260;20.816;2022-08-30T22:48:48;1.85;;;1.05;;
72929;SDS011;61073;54.260;20.816;2022-08-30T22:51:16;1.35;;;1.10;;
72929;SDS011;61073;54.260;20.816;2022-08-30T22:53:44;1.20;;;0.90;;
72929;SDS011;61073;54.260;20.816;2022-08-30T22:56:16;2.85;;;0.90;;
72929;SDS011;61073;54.260;20.816;2022-08-30T22:58:44;3.05;;;1.05;;
72929;SDS011;61073;54.260;20.816;2022-08-30T23:01:22;1.30;;;1.08;;
72929;SDS011;61073;54.260;20.816;2022-08-30T23:03:51;2.05;;;1.08;;
72929;SDS011;61073;54.260;20.816;2022-08-30T23:06:19;2.03;;;1.27;;
72929;SDS011;61073;54.260;20.816;2022-08-30T23:08:46;1.73;;;1.00;;
72929;SDS011;61073;54.260;20.816;2022-08-30T23:11:13;1.55;;;0.90;;
72929;SDS011;61073;54.260;20.816;2022-08-30T23:13:40;1.67;;;0.95;;
72929;SDS011;61073;54.260;20.816;2022-08-30T23:16:08;1.00;;;0.90;;
72929;SDS011;61073;54.260;20.816;2022-08-30T23:18:37;1.50;;;0.90;;
72929;SDS011;61073;54.260;20.816;2022-08-30T23:21:24;1.35;;;0.90;;
72929;SDS011;61073;54.260;20.816;2022-08-30T23:23:54;1.85;;;0.90;;
72929;SDS011;61073;54.260;20.816;2022-08-30T23:26:41;1.73;;;0.90;;
72929;SDS011;61073;54.260;20.816;2022-08-30T23:29:27;1.70;;;1.08;;
72929;SDS011;61073;54.260;20.816;2022-08-30T23:32:13;1.10;;;1.00;;
72929;SDS011;61073;54.260;20.816;2022-08-30T23:34:58;0.85;;;0.70;;
72929;SDS011;61073;54.260;20.816;2022-08-30T23:37:44;2.20;;;0.90;;
72929;SDS011;61073;54.260;20.816;2022-08-30T23:40:29;1.40;;;0.93;;
72929;SDS011;61073;54.260;20.816;2022-08-30T23:43:14;1.30;;;1.00;;
72929;SDS011;61073;54.260;20.816;2022-08-30T23:46:00;2.78;;;1.20;;
72929;SDS011;61073;54.260;20.816;2022-08-30T23:48:46;2.17;;;1.02;;
72929;SDS011;61073;54.260;20.816;2022-08-30T23:51:32;2.20;;;0.93;;
72929;SDS011;61073;54.260;20.816;2022-08-30T23:54:17;0.93;;;0.88;;
72929;SDS011;61073;54.260;20.816;2022-08-30T23:57:03;1.85;;;1.08;;
72929;SDS011;61073;54.260;20.816;2022-08-30T23:59:48;1.10;;;1.00;;
